Time;durP1;ratioP1;P1;durP2;ratioP2;P2;SDS_P1;SDS_P2;PMS_P1;PMS_P2;Temp;Humidity;BMP_temperature;BMP_pressure;BME280_temperature;BME280_humidity;BME280_pressure;Samples;Min_cycle;Max_cycle;Signal;HPM_P1;HPM_P2
2023/01/19 00:01:34;;;;;;;8.90;6.20;;;2.40;53.50;;;;;;5047535;28;20456;-85
2023/01/19 00:04:01;;;;;;;13.23;7.33;;;2.20;53.70;;;;;;5045216;28;20609;-85
2023/01/19 00:06:28;;;;;;;17.33;8.20;;;2.20;53.80;;;;;;5042752;28;20459;-85
2023/01/19 00:08:55;;;;;;;14.47;6.87;;;2.10;54.40;;;;;;5081169;28;20956;-85
2023/01/19 00:11:22;;;;;;;14.60;7.00;;;2.20;54.40;;;;;;5053236;28;20464;-86
2023/01/19 00:13:49;;;;;;;12.03;6.93;;;2.40;53.60;;;;;;5030042;28;20533;-85
2023/01/19 00:16:17;;;;;;;13.63;7.87;;;2.60;52.90;;;;;;5042404;28;20505;-85
2023/01/19 00:18:45;;;;;;;13.37;6.50;;;2.50;52.50;;;;;;5046690;28;20778;-85
2023/01/19 00:21:13;;;;;;;23.97;8.50;;;2.00;53.10;;;;;;5061695;28;20479;-85
2023/01/19 00:23:41;;;;;;;14.03;7.77;;;2.00;53.80;;;;;;5038001;28;20442;-85
2023/01/19 00:26:09;;;;;;;14.00;8.03;;;2.20;54.30;;;;;;5044174;28;20447;-85
2023/01/19 00:28:36;;;;;;;9.57;6.17;;;2.40;53.80;;;;;;5048285;28;20848;-85
2023/01/19 00:31:03;;;;;;;12.10;5.93;;;1.90;53.20;;;;;;5057964;28;20464;-85
2023/01/19 00:33:29;;;;;;;12.83;7.27;;;1.30;54.60;;;;;;5061574;28;20963;-86
2023/01/19 00:35:58;;;;;;;13.73;7.20;;;1.50;55.40;;;;;;5061825;28;20865;-85
2023/01/19 00:38:25;;;;;;;16.47;8.10;;;1.70;54.90;;;;;;5071801;28;20456;-87
2023/01/19 00:40:51;;;;;;;20.10;10.50;;;2.00;54.70;;;;;;5060653;28;21054;-86
2023/01/19 00:43:18;;;;;;;13.90;7.83;;;2.10;54.30;;;;;;5046010;28;20484;-85
2023/01/19 00:45:46;;;;;;;14.13;8.70;;;2.00;54.40;;;;;;5039549;28;20521;-84
2023/01/19 00:48:12;;;;;;;12.07;7.77;;;1.80;54.70;;;;;;5081221;28;20452;-85
2023/01/19 00:50:39;;;;;;;16.77;8.10;;;1.90;54.20;;;;;;5054257;28;20490;-84
2023/01/19 00:53:08;;;;;;;14.73;7.37;;;2.10;53.90;;;;;;5026747;28;20495;-83
2023/01/19 00:55:35;;;;;;;13.30;8.27;;;2.00;52.80;;;;;;5046143;28;20456;-85
2023/01/19 00:58:02;;;;;;;18.07;8.50;;;2.00;53.00;;;;;;5047056;28;20497;-85
2023/01/19 01:00:29;;;;;;;14.07;7.40;;;1.90;53.10;;;;;;5046139;28;20479;-85
2023/01/19 01:02:56;;;;;;;13.90;7.67;;;1.80;53.60;;;;;;5061600;28;20451;-85
2023/01/19 01:05:23;;;;;;;17.90;8.60;;;1.80;53.90;;;;;;5028950;28;20976;-85
2023/01/19 01:07:50;;;;;;;13.80;8.63;;;1.80;53.90;;;;;;5026905;28;20452;-84
2023/01/19 01:10:20;;;;;;;18.20;7.50;;;1.60;55.00;;;;;;5062419;28;20447;-86
2023/01/19 01:12:47;;;;;;;11.87;8.03;;;1.60;55.20;;;;;;5082099;28;20471;-85
2023/01/19 01:15:16;;;;;;;20.90;9.20;;;1.20;56.30;;;;;;5080438;28;20440;-85
2023/01/19 01:17:46;;;;;;;13.10;7.20;;;1.10;56.50;;;;;;5081846;28;20530;-85
2023/01/19 01:20:16;;;;;;;9.27;7.57;;;1.10;56.50;;;;;;5069070;28;20436;-85
2023/01/19 01:22:45;;;;;;;18.10;8.27;;;1.00;56.20;;;;;;5080560;28;20436;-85
2023/01/19 01:25:13;;;;;;;24.17;8.43;;;1.20;56.20;;;;;;5079717;28;20440;-84
2023/01/19 01:27:42;;;;;;;19.67;7.80;;;1.40;55.40;;;;;;5063127;28;20444;-85
2023/01/19 01:30:11;;;;;;;14.60;8.00;;;1.30;55.50;;;;;;5068260;28;20866;-84
2023/01/19 01:32:38;;;;;;;20.67;9.13;;;1.50;55.20;;;;;;5060154;28;20498;-82
2023/01/19 01:35:07;;;;;;;13.03;9.13;;;1.60;55.00;;;;;;5060136;28;20608;-85
2023/01/19 01:37:35;;;;;;;14.13;9.30;;;1.80;54.50;;;;;;5061858;28;20506;-84
2023/01/19 01:40:02;;;;;;;19.93;12.03;;;1.90;53.70;;;;;;5077331;28;20447;-84
2023/01/19 01:42:30;;;;;;;15.73;8.97;;;2.10;53.40;;;;;;5044016;28;20463;-86
2023/01/19 01:45:00;;;;;;;16.63;9.20;;;2.20;53.00;;;;;;5075073;28;20436;-85
2023/01/19 01:47:32;;;;;;;12.40;7.43;;;2.20;53.40;;;;;;5074845;28;21282;-86
2023/01/19 01:50:08;;;;;;;15.10;7.60;;;1.90;53.80;;;;;;5083004;28;20444;-86
2023/01/19 01:52:40;;;;;;;13.43;8.60;;;1.90;54.00;;;;;;5029263;28;20474;-87
2023/01/19 01:55:09;;;;;;;16.77;9.67;;;1.80;54.40;;;;;;5035530;28;20456;-87
2023/01/19 01:57:39;;;;;;;16.53;9.37;;;1.70;54.90;;;;;;5048892;28;20933;-88
2023/01/19 02:00:09;;;;;;;19.20;10.03;;;1.90;54.60;;;;;;5054680;28;20452;-87
2023/01/19 02:02:53;;;;;;;16.27;8.67;;;2.00;54.00;;;;;;5031204;28;20443;-87
2023/01/19 02:05:28;;;;;;;15.27;8.33;;;2.10;53.30;;;;;;5060162;28;20455;-87
2023/01/19 02:13:33;;;;;;;16.13;7.43;;;2.30;52.30;;;;;;5058495;28;20467;-85
2023/01/19 02:16:06;;;;;;;12.60;6.90;;;2.00;52.70;;;;;;5035727;28;20447;-88
2023/01/19 02:18:34;;;;;;;15.43;6.67;;;1.60;54.50;;;;;;5036876;28;21200;-86
2023/01/19 02:21:10;;;;;;;11.33;7.13;;;0.90;55.90;;;;;;5046577;28;20490;-87
2023/01/19 02:23:42;;;;;;;11.50;7.40;;;0.80;57.20;;;;;;5038314;28;20447;-87
2023/01/19 02:26:12;;;;;;;13.73;8.03;;;1.20;56.20;;;;;;5031707;28;20456;-88
2023/01/19 02:28:43;;;;;;;12.77;7.93;;;1.40;55.90;;;;;;5062202;28;20450;-87
2023/01/19 02:31:10;;;;;;;17.67;7.40;;;1.60;54.50;;;;;;5033604;28;20467;-88
2023/01/19 02:33:37;;;;;;;15.90;7.60;;;1.50;54.80;;;;;;5030934;28;20521;-88
2023/01/19 02:36:07;;;;;;;16.00;8.47;;;1.80;54.40;;;;;;5053729;28;20440;-88
2023/01/19 02:38:35;;;;;;;18.83;8.87;;;1.90;54.00;;;;;;5043354;28;20451;-88
2023/01/19 02:41:07;;;;;;;16.63;8.37;;;1.90;54.20;;;;;;5059227;28;20495;-88
2023/01/19 02:43:35;;;;;;;19.40;9.27;;;1.80;54.60;;;;;;5035294;28;20436;-87
2023/01/19 02:46:03;;;;;;;14.63;9.97;;;2.00;55.00;;;;;;5038087;28;20448;-88
2023/01/19 02:48:31;;;;;;;11.37;8.50;;;2.20;53.90;;;;;;5038222;28;20448;-88
2023/01/19 02:51:03;;;;;;;16.43;9.20;;;2.20;53.00;;;;;;5052146;28;20499;-88
2023/01/19 02:54:07;;;;;;;10.20;6.63;;;2.20;53.40;;;;;;5069327;28;20458;-87
2023/01/19 02:56:54;;;;;;;16.30;8.40;;;2.00;54.50;;;;;;5030468;28;20452;-87
2023/01/19 02:59:31;;;;;;;13.60;7.50;;;2.20;53.90;;;;;;5035533;28;20511;-87
2023/01/19 03:02:10;;;;;;;14.40;7.50;;;2.30;53.50;;;;;;5050698;28;20589;-87
2023/01/19 03:04:53;;;;;;;12.87;7.50;;;2.30;53.30;;;;;;5069129;28;20444;-88
2023/01/19 03:07:30;;;;;;;14.67;7.97;;;2.30;53.20;;;;;;5043388;28;20533;-88
2023/01/19 03:10:03;;;;;;;16.60;8.07;;;2.10;53.80;;;;;;5048184;28;20860;-85
2023/01/19 03:12:43;;;;;;;15.13;7.17;;;2.00;54.60;;;;;;5033536;28;20433;-88
2023/01/19 03:15:18;;;;;;;14.70;8.57;;;2.20;54.40;;;;;;5051449;28;20473;-88
2023/01/19 03:17:48;;;;;;;12.20;7.43;;;2.10;53.10;;;;;;5035278;28;20554;-88
2023/01/19 03:20:19;;;;;;;13.57;8.47;;;2.10;53.30;;;;;;5048007;28;20454;-89
2023/01/19 03:22:50;;;;;;;17.97;8.10;;;2.20;52.90;;;;;;5051686;28;20448;-88
2023/01/19 03:25:20;;;;;;;17.77;8.00;;;2.30;52.60;;;;;;5048712;28;21899;-89
2023/01/19 03:27:52;;;;;;;14.50;8.30;;;2.40;52.40;;;;;;5034276;28;20453;-88
2023/01/19 03:30:24;;;;;;;17.70;8.80;;;2.40;52.10;;;;;;5034656;28;20525;-87
2023/01/19 03:32:55;;;;;;;12.77;7.13;;;2.40;51.70;;;;;;5035164;28;20472;-87
2023/01/19 03:35:24;;;;;;;17.20;9.17;;;2.40;51.80;;;;;;5046910;28;20472;-88
2023/01/19 03:37:56;;;;;;;13.17;7.30;;;2.30;51.80;;;;;;5038789;28;20459;-87
2023/01/19 03:40:27;;;;;;;9.50;7.40;;;2.30;51.80;;;;;;5035065;28;20472;-88
2023/01/19 03:42:56;;;;;;;11.87;6.77;;;2.30;51.80;;;;;;5035027;28;20836;-87
2023/01/19 03:45:23;;;;;;;17.40;7.80;;;2.20;51.80;;;;;;5036097;28;20444;-88
2023/01/19 03:47:51;;;;;;;15.33;7.67;;;2.10;52.40;;;;;;5050019;28;20459;-88
2023/01/19 03:50:26;;;;;;;15.90;7.70;;;2.10;52.40;;;;;;5047434;28;20432;-88
2023/01/19 03:53:06;;;;;;;16.50;8.17;;;2.10;52.10;;;;;;5037799;28;21369;-89
2023/01/19 03:55:34;;;;;;;12.63;7.23;;;2.00;52.30;;;;;;5051339;28;20459;-88
2023/01/19 03:58:02;;;;;;;12.67;7.70;;;1.90;53.70;;;;;;5033992;28;20447;-88
2023/01/19 04:00:30;;;;;;;15.33;7.77;;;2.00;53.30;;;;;;5034043;28;20475;-87
2023/01/19 04:02:57;;;;;;;15.37;6.57;;;2.00;53.50;;;;;;5050587;28;20451;-89
2023/01/19 04:05:25;;;;;;;10.87;6.30;;;1.90;53.80;;;;;;5032239;28;20483;-88
2023/01/19 04:07:53;;;;;;;18.20;9.87;;;1.60;54.40;;;;;;5039551;28;20447;-88
2023/01/19 04:10:20;;;;;;;17.77;8.60;;;1.70;54.60;;;;;;5055080;28;20475;-89
2023/01/19 04:12:48;;;;;;;13.87;7.17;;;1.90;54.00;;;;;;5035238;28;20452;-89
2023/01/19 04:15:17;;;;;;;13.80;7.70;;;1.80;53.60;;;;;;5033111;28;20440;-88
2023/01/19 04:17:44;;;;;;;14.80;7.07;;;1.60;54.70;;;;;;5035701;28;20437;-88
2023/01/19 04:20:11;;;;;;;13.40;7.73;;;1.60;55.70;;;;;;5053873;28;20452;-87
2023/01/19 04:22:39;;;;;;;18.70;8.10;;;1.80;55.60;;;;;;5051416;28;20466;-88
2023/01/19 04:25:07;;;;;;;12.67;8.80;;;2.00;54.80;;;;;;5052316;28;20490;-88
2023/01/19 04:27:35;;;;;;;23.50;11.33;;;1.90;55.30;;;;;;5035440;28;20452;-88
2023/01/19 04:30:03;;;;;;;17.70;8.93;;;2.10;55.10;;;;;;5048315;28;20448;-87
2023/01/19 04:32:32;;;;;;;11.70;7.70;;;2.30;54.80;;;;;;5034385;28;20945;-88
2023/01/19 04:34:59;;;;;;;15.77;9.33;;;2.40;54.60;;;;;;5031554;28;20464;-88
2023/01/19 04:37:26;;;;;;;15.30;8.43;;;2.50;54.60;;;;;;5032811;28;20449;-88
2023/01/19 04:39:53;;;;;;;12.93;8.77;;;2.70;54.30;;;;;;5049386;28;20534;-87
2023/01/19 04:42:21;;;;;;;16.90;7.90;;;2.80;53.90;;;;;;5028734;28;20471;-88
2023/01/19 04:44:48;;;;;;;13.03;7.87;;;2.70;53.30;;;;;;5044997;28;20454;-88
2023/01/19 04:47:15;;;;;;;16.23;8.90;;;2.70;53.40;;;;;;5028860;28;20461;-86
2023/01/19 04:49:43;;;;;;;12.53;8.90;;;2.50;54.50;;;;;;5034722;28;20980;-87
2023/01/19 04:54:44;;;;;;;23.97;10.30;;;2.60;55.10;;;;;;5032266;28;20462;-88
2023/01/19 04:57:11;;;;;;;21.47;10.13;;;2.70;54.40;;;;;;5026518;28;20817;-89
2023/01/19 04:59:39;;;;;;;15.93;9.60;;;2.80;53.60;;;;;;5044150;28;20944;-88
2023/01/19 05:02:06;;;;;;;13.67;8.50;;;2.80;53.20;;;;;;5044698;28;20463;-88
2023/01/19 05:04:33;;;;;;;17.30;9.90;;;2.80;53.30;;;;;;5023399;28;20818;-89
2023/01/19 05:07:01;;;;;;;15.47;8.93;;;2.60;53.90;;;;;;5045986;28;20535;-89
2023/01/19 05:09:28;;;;;;;13.10;9.00;;;2.70;54.10;;;;;;5020690;28;20458;-86
2023/01/19 05:11:55;;;;;;;16.27;8.70;;;2.70;53.90;;;;;;5029126;28;20578;-88
2023/01/19 05:14:22;;;;;;;12.53;7.90;;;2.70;54.00;;;;;;5026815;28;20474;-91
2023/01/19 05:16:49;;;;;;;16.63;9.60;;;2.60;53.70;;;;;;5029264;28;20778;-88
2023/01/19 05:19:16;;;;;;;17.00;9.90;;;2.50;54.30;;;;;;5026850;28;21021;-89
2023/01/19 05:21:43;;;;;;;18.70;8.80;;;2.50;54.30;;;;;;5046600;28;20999;-88
2023/01/19 05:24:12;;;;;;;15.87;9.57;;;2.60;53.70;;;;;;5022616;28;20550;-89
2023/01/19 05:26:39;;;;;;;17.73;8.80;;;2.60;53.40;;;;;;5030249;28;20532;-88
2023/01/19 05:29:07;;;;;;;14.23;8.00;;;2.60;53.00;;;;;;5066857;28;20459;-88
2023/01/19 05:31:34;;;;;;;16.53;8.93;;;2.60;52.90;;;;;;5031495;28;20487;-88
2023/01/19 05:34:01;;;;;;;17.57;8.27;;;2.60;52.80;;;;;;5033286;28;20472;-89
2023/01/19 05:36:28;;;;;;;17.10;9.93;;;2.60;52.80;;;;;;5048483;28;20466;-88
2023/01/19 05:38:56;;;;;;;19.23;9.70;;;2.30;53.20;;;;;;5031584;28;20448;-89
2023/01/19 05:41:25;;;;;;;17.90;10.20;;;1.80;54.90;;;;;;5026498;28;20995;-89
2023/01/19 05:43:52;;;;;;;14.07;9.60;;;1.80;55.90;;;;;;5033299;28;20944;-87
2023/01/19 05:46:19;;;;;;;24.63;8.70;;;2.00;55.20;;;;;;5047357;28;20474;-88
2023/01/19 05:48:46;;;;;;;14.83;7.73;;;2.10;54.00;;;;;;5035592;28;20834;-88
2023/01/19 05:51:14;;;;;;;19.47;9.67;;;2.20;53.60;;;;;;5032979;28;20494;-90
2023/01/19 05:53:41;;;;;;;21.07;11.43;;;2.10;53.70;;;;;;5032376;28;20475;-88
2023/01/19 05:56:09;;;;;;;18.13;10.80;;;2.10;53.90;;;;;;5030878;28;20479;-86
2023/01/19 05:58:39;;;;;;;17.33;10.13;;;2.20;53.40;;;;;;5032860;28;20456;-88
2023/01/19 06:01:08;;;;;;;19.93;11.57;;;2.30;52.90;;;;;;5065897;28;20474;-88
2023/01/19 06:03:38;;;;;;;21.37;10.60;;;2.20;53.00;;;;;;5025862;28;20885;-88
2023/01/19 06:06:05;;;;;;;19.63;10.80;;;2.20;53.00;;;;;;5063851;28;20487;-89
2023/01/19 06:08:32;;;;;;;16.67;10.17;;;2.20;53.20;;;;;;5030471;28;20538;-88
2023/01/19 06:10:59;;;;;;;19.23;9.60;;;2.30;53.10;;;;;;5052445;28;20467;-88
2023/01/19 06:13:26;;;;;;;20.80;11.23;;;2.20;52.80;;;;;;5029433;28;20459;-88
2023/01/19 06:15:59;;;;;;;24.53;11.80;;;2.30;52.60;;;;;;5035748;28;20456;-88
2023/01/19 06:18:26;;;;;;;29.30;15.57;;;2.20;52.60;;;;;;5036839;28;20479;-87
2023/01/19 06:20:57;;;;;;;20.47;11.97;;;2.20;52.30;;;;;;5039151;28;20467;-88
2023/01/19 06:23:24;;;;;;;19.37;10.03;;;2.20;52.10;;;;;;5052277;28;20481;-88
2023/01/19 06:25:52;;;;;;;25.43;13.17;;;2.10;52.30;;;;;;5052221;28;20461;-88
2023/01/19 06:28:19;;;;;;;22.63;14.10;;;1.90;53.30;;;;;;5034475;28;20790;-88
2023/01/19 06:30:48;;;;;;;28.90;13.80;;;1.60;53.50;;;;;;5038249;28;20541;-87
2023/01/19 06:33:18;;;;;;;24.60;12.67;;;1.40;55.70;;;;;;5048143;28;20540;-88
2023/01/19 06:35:49;;;;;;;24.80;13.80;;;1.60;55.30;;;;;;5035491;28;20456;-85
2023/01/19 06:38:18;;;;;;;18.50;12.03;;;1.70;54.50;;;;;;5050487;28;20471;-88
2023/01/19 06:40:45;;;;;;;23.20;12.40;;;1.80;53.90;;;;;;5035153;28;20563;-88
2023/01/19 06:43:12;;;;;;;26.93;13.80;;;1.80;53.40;;;;;;5036325;28;20476;-86
2023/01/19 06:45:39;;;;;;;24.07;11.47;;;1.90;53.30;;;;;;5037262;28;20476;-87
2023/01/19 06:48:06;;;;;;;26.47;12.97;;;2.00;53.20;;;;;;5036749;28;20454;-88
2023/01/19 06:50:35;;;;;;;28.50;14.13;;;1.70;54.80;;;;;;5034195;28;20471;-88
2023/01/19 06:53:02;;;;;;;21.63;11.27;;;1.50;55.50;;;;;;5038145;28;21237;-89
2023/01/19 06:55:29;;;;;;;19.97;12.37;;;1.80;55.20;;;;;;5028350;28;20477;-88
2023/01/19 06:57:57;;;;;;;25.03;12.07;;;2.00;54.80;;;;;;5070005;28;20452;-90
2023/01/19 07:00:25;;;;;;;19.50;11.33;;;2.20;53.80;;;;;;5033401;28;20473;-87
2023/01/19 07:02:52;;;;;;;22.40;12.53;;;2.20;53.00;;;;;;5044856;28;20566;-88
2023/01/19 07:05:20;;;;;;;19.07;11.90;;;2.20;52.90;;;;;;5035011;28;20482;-86
2023/01/19 07:07:52;;;;;;;23.40;12.67;;;2.20;52.40;;;;;;5038455;28;20450;-87
2023/01/19 07:10:20;;;;;;;18.30;12.30;;;2.00;53.20;;;;;;5050186;28;20538;-88
2023/01/19 07:12:47;;;;;;;16.80;11.07;;;1.80;54.10;;;;;;5052761;28;20452;-88
2023/01/19 07:15:15;;;;;;;19.93;11.40;;;1.90;54.00;;;;;;5051273;28;20467;-88
2023/01/19 07:17:42;;;;;;;16.20;11.10;;;2.00;53.90;;;;;;5031417;28;20459;-86
2023/01/19 07:20:11;;;;;;;23.23;13.97;;;2.00;53.70;;;;;;5034768;28;20607;-88
2023/01/19 07:22:39;;;;;;;24.47;12.77;;;1.90;53.60;;;;;;5025160;28;21004;-88
2023/01/19 07:25:08;;;;;;;14.90;8.67;;;1.60;54.70;;;;;;5030056;28;20441;-88
2023/01/19 07:27:35;;;;;;;21.13;12.87;;;1.20;56.20;;;;;;5049141;28;20992;-88
2023/01/19 07:30:03;;;;;;;19.43;8.37;;;0.90;58.50;;;;;;5038042;28;20457;-85
2023/01/19 07:32:30;;;;;;;14.03;6.67;;;0.80;59.30;;;;;;5032981;28;20506;-88
2023/01/19 07:34:57;;;;;;;9.20;6.70;;;1.00;59.90;;;;;;5032781;28;20506;-88
2023/01/19 07:37:24;;;;;;;25.83;11.70;;;1.10;59.70;;;;;;5033024;28;20963;-88
2023/01/19 07:39:51;;;;;;;23.87;13.97;;;1.40;59.60;;;;;;5034494;28;20506;-88
2023/01/19 07:42:19;;;;;;;22.40;13.27;;;1.50;59.00;;;;;;5033361;28;20475;-87
2023/01/19 07:44:47;;;;;;;19.10;12.13;;;1.80;58.60;;;;;;5067586;28;20465;-89
2023/01/19 07:47:14;;;;;;;24.67;12.83;;;2.10;57.50;;;;;;5036143;28;20455;-88
2023/01/19 07:49:41;;;;;;;22.67;13.00;;;2.10;56.90;;;;;;5047899;28;20443;-88
2023/01/19 07:52:08;;;;;;;33.83;17.37;;;1.90;57.50;;;;;;5037171;28;20510;-87
2023/01/19 07:54:35;;;;;;;24.60;14.63;;;1.80;58.10;;;;;;5034570;28;20989;-88
2023/01/19 07:57:02;;;;;;;20.83;12.13;;;1.90;58.30;;;;;;5028350;28;20447;-88
2023/01/19 07:59:31;;;;;;;37.37;16.37;;;2.00;58.40;;;;;;5033322;28;20455;-88
2023/01/19 08:01:59;;;;;;;34.07;15.23;;;1.90;58.80;;;;;;5066438;28;20464;-88
2023/01/19 08:04:26;;;;;;;22.40;12.50;;;1.90;59.30;;;;;;5034279;28;20452;-88
2023/01/19 08:06:53;;;;;;;28.30;17.00;;;2.10;58.50;;;;;;5035858;28;20447;-88
2023/01/19 08:09:21;;;;;;;35.67;18.50;;;2.30;58.10;;;;;;5043613;28;20944;-86
2023/01/19 08:11:48;;;;;;;28.13;18.13;;;2.50;57.70;;;;;;5035128;28;20554;-88
2023/01/19 08:14:15;;;;;;;34.50;18.27;;;2.50;57.70;;;;;;5038425;28;20464;-88
2023/01/19 08:16:44;;;;;;;30.30;19.13;;;2.70;57.40;;;;;;5067782;28;20459;-88
2023/01/19 08:19:11;;;;;;;38.87;23.60;;;2.80;57.30;;;;;;5039686;28;20447;-88
2023/01/19 08:21:38;;;;;;;43.97;22.70;;;2.90;56.80;;;;;;5033600;28;20981;-88
2023/01/19 08:24:05;;;;;;;35.07;20.67;;;2.90;56.70;;;;;;5035553;28;20473;-88
2023/01/19 08:26:34;;;;;;;31.90;17.80;;;3.00;56.90;;;;;;5048724;28;20543;-89
2023/01/19 08:29:04;;;;;;;43.03;21.17;;;3.00;56.60;;;;;;5028108;28;20457;-87
2023/01/19 08:31:31;;;;;;;38.10;18.50;;;2.90;57.10;;;;;;5031588;28;20467;-88
2023/01/19 08:33:59;;;;;;;31.83;18.10;;;2.90;57.40;;;;;;5033463;28;20451;-87
2023/01/19 08:36:26;;;;;;;102.10;44.07;;;2.90;57.40;;;;;;5032402;28;20458;-86
2023/01/19 08:38:53;;;;;;;53.00;21.37;;;2.70;58.20;;;;;;5031529;28;20467;-88
2023/01/19 08:41:21;;;;;;;42.60;17.73;;;2.50;59.10;;;;;;5033586;28;20468;-85
2023/01/19 08:43:48;;;;;;;39.53;17.30;;;2.50;59.20;;;;;;5050811;28;20443;-87
2023/01/19 08:46:17;;;;;;;29.07;16.40;;;2.60;59.30;;;;;;5057736;28;20445;-87
2023/01/19 08:48:46;;;;;;;34.53;15.97;;;2.80;59.80;;;;;;5028714;28;20521;-88
2023/01/19 08:51:15;;;;;;;22.70;11.90;;;3.00;58.30;;;;;;5050738;28;20515;-89
2023/01/19 08:53:43;;;;;;;19.40;10.00;;;3.00;58.20;;;;;;5028864;28;20456;-88
2023/01/19 08:56:11;;;;;;;24.53;13.57;;;3.00;59.30;;;;;;5039509;28;20454;-89
2023/01/19 08:58:39;;;;;;;24.30;12.27;;;3.10;59.50;;;;;;5034223;28;20539;-88
2023/01/19 09:01:07;;;;;;;16.60;8.37;;;3.00;59.30;;;;;;5034423;28;20518;-89
2023/01/19 09:03:34;;;;;;;19.60;7.50;;;3.00;59.70;;;;;;5033816;28;20891;-88
2023/01/19 09:06:01;;;;;;;15.80;9.10;;;2.90;61.30;;;;;;5034768;28;20462;-88
2023/01/19 09:08:30;;;;;;;14.50;7.43;;;2.90;61.20;;;;;;5033410;28;21168;-89
2023/01/19 09:10:57;;;;;;;17.77;9.10;;;2.80;62.50;;;;;;5038832;28;20464;-88
2023/01/19 09:13:24;;;;;;;18.00;8.23;;;2.70;63.20;;;;;;5034073;28;20455;-86
2023/01/19 09:15:52;;;;;;;12.20;8.20;;;2.70;63.60;;;;;;5035466;28;20555;-87
2023/01/19 09:18:21;;;;;;;9.73;6.73;;;3.00;63.20;;;;;;5044328;28;21106;-88
2023/01/19 09:20:50;;;;;;;11.80;7.27;;;3.30;62.20;;;;;;5050782;28;20984;-88
2023/01/19 09:23:18;;;;;;;15.07;8.03;;;3.10;62.40;;;;;;5034371;28;20436;-88
2023/01/19 09:25:47;;;;;;;14.33;8.27;;;3.10;63.40;;;;;;5050265;28;20533;-87
2023/01/19 09:28:16;;;;;;;14.07;8.67;;;3.40;62.60;;;;;;5062147;28;21138;-87
2023/01/19 09:30:44;;;;;;;13.03;7.80;;;3.40;62.50;;;;;;5030631;28;20472;-88
2023/01/19 09:33:13;;;;;;;16.27;10.20;;;3.50;62.50;;;;;;5026725;28;20448;-88
2023/01/19 09:35:41;;;;;;;15.70;8.93;;;3.70;61.80;;;;;;5034256;28;20476;-88
2023/01/19 09:38:09;;;;;;;16.20;9.83;;;3.90;61.80;;;;;;5036197;28;20439;-88
2023/01/19 09:40:41;;;;;;;31.23;14.37;;;4.10;60.80;;;;;;5029726;28;20463;-89
2023/01/19 09:43:16;;;;;;;18.27;10.50;;;4.00;61.20;;;;;;5036024;28;21039;-87
2023/01/19 09:45:48;;;;;;;19.17;8.93;;;4.00;61.00;;;;;;5031299;28;20444;-89
2023/01/19 09:48:30;;;;;;;14.97;9.60;;;4.00;61.40;;;;;;5030381;28;20503;-89
2023/01/19 09:51:02;;;;;;;16.97;10.73;;;4.10;61.50;;;;;;5049780;28;20999;-87
2023/01/19 09:53:42;;;;;;;23.47;11.63;;;4.20;61.30;;;;;;5033217;28;20459;-88
2023/01/19 09:56:13;;;;;;;21.27;12.60;;;4.40;60.90;;;;;;5020903;28;20469;-87
2023/01/19 09:58:43;;;;;;;18.23;10.47;;;4.50;61.30;;;;;;5048555;28;20466;-88
2023/01/19 10:01:22;;;;;;;15.27;9.67;;;4.70;60.50;;;;;;5038188;28;20471;-86
2023/01/19 10:03:54;;;;;;;13.90;8.63;;;4.70;60.00;;;;;;5031908;28;20518;-87
2023/01/19 10:06:22;;;;;;;17.73;9.40;;;4.60;60.20;;;;;;5034341;28;20451;-87
2023/01/19 10:09:02;;;;;;;50.37;13.17;;;4.70;60.40;;;;;;5048652;28;20969;-88
2023/01/19 10:11:36;;;;;;;17.27;8.90;;;4.90;59.80;;;;;;5031211;28;20471;-88
2023/01/19 10:14:13;;;;;;;10.50;7.33;;;4.90;59.10;;;;;;5034723;28;20456;-87
2023/01/19 10:16:45;;;;;;;19.73;7.90;;;5.00;60.10;;;;;;5051367;28;20467;-88
2023/01/19 10:19:21;;;;;;;16.43;8.97;;;5.10;59.50;;;;;;5040029;28;20458;-88
2023/01/19 10:21:51;;;;;;;12.57;8.40;;;5.10;59.10;;;;;;5071565;28;21057;-88
2023/01/19 10:24:22;;;;;;;27.43;13.33;;;4.90;59.90;;;;;;5042744;28;20956;-88
2023/01/19 10:26:51;;;;;;;11.03;7.50;;;5.00;59.50;;;;;;5037758;28;20444;-87
2023/01/19 10:29:25;;;;;;;19.37;8.83;;;5.00;59.20;;;;;;5027112;28;20496;-87
2023/01/19 10:31:57;;;;;;;22.13;9.70;;;5.00;59.60;;;;;;5050750;28;20988;-87
2023/01/19 10:34:24;;;;;;;11.87;8.00;;;5.10;59.00;;;;;;5045990;28;20451;-87
2023/01/19 10:37:02;;;;;;;16.10;8.47;;;5.10;58.60;;;;;;5047971;28;20475;-88
2023/01/19 10:39:29;;;;;;;18.00;7.73;;;4.80;59.50;;;;;;5034588;28;20457;-89
2023/01/19 10:42:00;;;;;;;18.50;8.77;;;4.80;59.80;;;;;;5034621;28;20474;-87
2023/01/19 10:44:34;;;;;;;10.87;7.87;;;4.80;59.50;;;;;;5035227;28;20447;-86
2023/01/19 10:47:01;;;;;;;15.13;9.20;;;4.80;59.40;;;;;;5036176;28;20467;-87
2023/01/19 10:49:35;;;;;;;13.30;8.73;;;5.10;59.20;;;;;;5038620;28;20991;-88
2023/01/19 10:52:03;;;;;;;10.50;5.83;;;5.30;58.90;;;;;;5033741;28;20472;-86
2023/01/19 10:54:31;;;;;;;10.30;6.67;;;5.20;59.20;;;;;;5036042;28;20983;-88
2023/01/19 10:57:02;;;;;;;16.43;8.30;;;5.20;57.90;;;;;;5037552;28;20455;-88
2023/01/19 10:59:34;;;;;;;17.83;9.53;;;5.20;58.50;;;;;;5029941;28;20448;-88
2023/01/19 11:02:17;;;;;;;12.77;7.80;;;5.20;58.70;;;;;;5045467;28;20482;-87
2023/01/19 11:04:45;;;;;;;10.97;6.77;;;5.30;58.50;;;;;;5045950;28;20458;-89
2023/01/19 11:07:15;;;;;;;10.57;6.30;;;5.30;59.00;;;;;;5035206;28;20452;-87
2023/01/19 11:09:43;;;;;;;16.93;8.70;;;5.50;58.40;;;;;;5028713;28;20447;-87
2023/01/19 11:12:17;;;;;;;15.40;8.63;;;5.50;57.90;;;;;;5035599;28;20463;-87
2023/01/19 11:14:46;;;;;;;10.53;7.27;;;5.30;57.90;;;;;;5048998;28;20446;-88
2023/01/19 11:17:25;;;;;;;12.57;7.97;;;5.20;58.50;;;;;;5034317;28;20550;-87
2023/01/19 11:19:57;;;;;;;11.17;6.13;;;5.10;58.90;;;;;;5036969;28;20509;-87
2023/01/19 11:22:28;;;;;;;12.43;7.67;;;5.10;58.70;;;;;;5027673;28;20468;-88
2023/01/19 11:25:00;;;;;;;13.93;6.50;;;5.10;59.10;;;;;;5046320;28;20455;-87
2023/01/19 11:27:27;;;;;;;11.10;7.87;;;5.10;58.90;;;;;;5033205;28;20824;-88
2023/01/19 11:30:04;;;;;;;17.33;8.53;;;5.30;58.70;;;;;;5062100;28;20458;-87
2023/01/19 11:32:34;;;;;;;18.27;9.20;;;5.30;58.60;;;;;;5024262;28;20464;-88
2023/01/19 11:35:35;;;;;;;12.37;7.23;;;5.50;58.80;;;;;;5032080;28;20455;-87
2023/01/19 11:38:07;;;;;;;12.33;7.20;;;5.60;58.50;;;;;;5036449;28;20452;-87
2023/01/19 11:40:35;;;;;;;21.53;12.40;;;5.60;57.80;;;;;;5033610;28;20578;-87
2023/01/19 11:43:02;;;;;;;42.70;19.27;;;5.70;57.80;;;;;;5036813;28;20452;-87
2023/01/19 11:45:34;;;;;;;20.77;10.77;;;5.70;57.70;;;;;;5034094;28;20443;-85
2023/01/19 11:48:05;;;;;;;15.47;9.40;;;5.70;58.10;;;;;;5036957;28;20611;-89
2023/01/19 11:50:36;;;;;;;16.07;8.33;;;5.80;57.70;;;;;;5032155;28;21024;-87
2023/01/19 11:53:07;;;;;;;9.60;7.30;;;5.40;57.70;;;;;;5056714;28;20468;-87
2023/01/19 11:55:39;;;;;;;17.80;12.30;;;5.40;58.30;;;;;;5033987;28;20550;-87
2023/01/19 11:58:06;;;;;;;15.70;9.93;;;5.70;58.50;;;;;;5066879;28;20506;-87
2023/01/19 12:00:39;;;;;;;18.43;8.03;;;5.90;58.10;;;;;;5050003;28;20470;-86
2023/01/19 12:03:13;;;;;;;16.13;9.90;;;6.10;57.70;;;;;;5085447;28;20440;-87
2023/01/19 12:05:44;;;;;;;29.00;11.83;;;6.00;57.40;;;;;;5051424;28;20947;-87
2023/01/19 12:08:15;;;;;;;18.60;10.60;;;6.10;57.50;;;;;;5050892;28;20471;-87
2023/01/19 12:10:46;;;;;;;13.70;10.20;;;6.10;57.20;;;;;;5084455;28;20470;-88
2023/01/19 12:13:22;;;;;;;13.30;7.00;;;6.20;57.40;;;;;;5034524;28;20448;-88
2023/01/19 12:15:56;;;;;;;13.53;7.97;;;6.10;57.40;;;;;;5032868;28;20815;-87
2023/01/19 12:18:28;;;;;;;12.40;7.07;;;6.10;57.30;;;;;;5064477;28;20435;-87
2023/01/19 12:20:57;;;;;;;52.53;26.93;;;6.20;56.90;;;;;;5051006;28;21015;-87
2023/01/19 12:23:47;;;;;;;29.73;14.97;;;6.30;57.20;;;;;;5046775;28;20498;-86
2023/01/19 12:26:33;;;;;;;19.97;11.10;;;6.40;56.90;;;;;;5040495;28;20436;-87
2023/01/19 12:29:06;;;;;;;14.40;8.30;;;6.50;56.40;;;;;;5062036;28;20446;-87
2023/01/19 12:31:35;;;;;;;20.30;12.17;;;6.60;56.00;;;;;;5042632;28;20472;-85
2023/01/19 12:34:30;;;;;;;26.77;10.63;;;6.70;56.00;;;;;;5036281;28;20535;-87
2023/01/19 12:37:03;;;;;;;13.60;9.60;;;6.60;55.70;;;;;;5060589;28;20960;-86
2023/01/19 12:39:32;;;;;;;12.60;4.90;;;6.40;55.80;;;;;;5044323;28;20445;-86
2023/01/19 12:42:11;;;;;;;6.13;4.43;;;6.00;55.70;;;;;;5025248;28;20835;-87
2023/01/19 12:44:39;;;;;;;6.70;5.03;;;6.10;56.60;;;;;;5046174;28;21252;-87
2023/01/19 12:47:23;;;;;;;10.60;4.53;;;6.20;56.00;;;;;;5046547;28;20460;-88
2023/01/19 12:49:52;;;;;;;10.53;5.57;;;6.20;56.40;;;;;;5028233;28;21391;-87
2023/01/19 12:52:32;;;;;;;15.47;8.37;;;6.10;56.10;;;;;;5033470;28;20516;-86
2023/01/19 12:55:20;;;;;;;19.80;8.70;;;6.20;56.20;;;;;;5084152;28;20439;-86
2023/01/19 12:57:53;;;;;;;19.57;8.97;;;6.40;56.10;;;;;;5066917;28;20530;-86
2023/01/19 13:00:36;;;;;;;28.73;12.80;;;6.30;55.70;;;;;;5051077;28;20443;-88
2023/01/19 13:03:20;;;;;;;22.87;9.17;;;6.20;56.00;;;;;;5082567;28;20444;-87
2023/01/19 13:05:49;;;;;;;14.07;6.20;;;6.00;56.60;;;;;;5080425;28;21132;-86